Time;durP1;ratioP1;P1;durP2;ratioP2;P2;SDS_P1;SDS_P2;PMS_P1;PMS_P2;Temp;Humidity;BMP_temperature;BMP_pressure;BME280_temperature;BME280_humidity;BME280_pressure;Samples;Min_cycle;Max_cycle;Signal;HPM_P1;HPM_P2
2022/11/13 00:04:43;;;;;;;27.70;11.50;;;8.60;99.90;;;;;;21091099;28;20661;-73
2022/11/13 00:14:44;;;;;;;13.13;10.03;;;8.50;99.90;;;;;;21090574;28;20254;-73
2022/11/13 00:24:46;;;;;;;11.30;9.37;;;8.50;99.90;;;;;;21089555;28;20216;-72
2022/11/13 00:34:48;;;;;;;13.70;10.03;;;8.30;99.90;;;;;;21088598;28;20226;-72
2022/11/13 00:44:49;;;;;;;18.20;10.30;;;8.30;99.90;;;;;;21070792;28;20211;-72
2022/11/13 00:54:51;;;;;;;15.30;11.27;;;8.20;99.90;;;;;;21086992;28;20295;-72
2022/11/13 01:04:53;;;;;;;13.80;10.30;;;8.20;99.90;;;;;;21068583;28;20214;-73
2022/11/13 01:14:55;;;;;;;14.40;10.30;;;8.20;99.90;;;;;;21085800;28;20234;-72
2022/11/13 01:24:56;;;;;;;12.30;9.60;;;8.20;99.90;;;;;;21080840;28;20205;-74
2022/11/13 01:34:58;;;;;;;11.87;9.00;;;8.10;99.90;;;;;;21082661;28;20234;-75
2022/11/13 01:45:03;;;;;;;12.83;9.50;;;8.10;99.90;;;;;;21083613;28;20614;-75
2022/11/13 01:55:12;;;;;;;12.80;9.73;;;8.00;99.90;;;;;;21082523;28;20236;-75
2022/11/13 02:05:14;;;;;;;11.50;8.50;;;7.80;99.90;;;;;;21081908;28;20213;-76
2022/11/13 02:15:49;;;;;;;20.10;9.07;;;7.70;99.90;;;;;;21081535;28;20233;-75
2022/11/13 02:25:53;;;;;;;10.60;8.07;;;7.60;99.90;;;;;;21081471;28;20254;-76
2022/11/13 02:35:55;;;;;;;12.83;8.70;;;7.50;99.90;;;;;;21080062;28;20242;-73
2022/11/13 02:45:57;;;;;;;11.67;8.67;;;7.40;99.90;;;;;;21078952;28;20206;-72
2022/11/13 02:55:59;;;;;;;92.43;10.80;;;7.30;99.90;;;;;;21079051;28;20234;-73
2022/11/13 03:06:00;;;;;;;10.37;8.23;;;7.30;99.90;;;;;;21078507;28;20206;-73
2022/11/13 03:16:21;;;;;;;9.80;7.10;;;7.40;99.90;;;;;;21078137;28;20236;-72
2022/11/13 03:26:23;;;;;;;33.00;8.60;;;7.40;99.90;;;;;;21072956;28;20668;-71
2022/11/13 03:36:24;;;;;;;76.70;9.13;;;7.40;99.90;;;;;;21070719;28;20234;-72
2022/11/13 03:46:26;;;;;;;36.17;8.30;;;7.30;99.90;;;;;;21092543;28;20716;-72
2022/11/13 03:56:29;;;;;;;10.97;7.50;;;7.30;99.90;;;;;;21094230;28;20245;-76
2022/11/13 04:06:31;;;;;;;13.27;7.90;;;7.20;99.90;;;;;;21091371;28;20685;-75
2022/11/13 04:16:32;;;;;;;17.93;7.20;;;7.00;99.90;;;;;;21090554;28;20695;-77
2022/11/13 04:26:34;;;;;;;17.90;7.67;;;7.20;99.90;;;;;;21091146;28;20208;-76
2022/11/13 04:36:36;;;;;;;14.43;7.50;;;7.10;99.90;;;;;;21088838;28;20262;-77
2022/11/13 04:46:37;;;;;;;37.80;7.43;;;7.00;99.90;;;;;;21087483;28;20244;-76
2022/11/13 04:56:39;;;;;;;25.77;7.20;;;6.90;99.90;;;;;;21087732;28;20237;-77
2022/11/13 05:06:41;;;;;;;44.13;7.17;;;6.90;99.90;;;;;;21086558;28;20212;-77
2022/11/13 05:16:42;;;;;;;18.03;7.17;;;6.70;99.90;;;;;;21085641;28;20243;-75
2022/11/13 05:26:44;;;;;;;9.40;6.30;;;6.70;99.90;;;;;;21081325;28;20213;-76
2022/11/13 05:36:46;;;;;;;50.27;7.03;;;6.60;99.90;;;;;;21082665;28;20232;-72
2022/11/13 05:46:47;;;;;;;77.43;7.87;;;6.60;99.90;;;;;;21083221;28;20239;-72
2022/11/13 05:56:49;;;;;;;50.23;7.17;;;6.60;99.90;;;;;;21082308;28;20274;-71
2022/11/13 06:06:51;;;;;;;41.50;7.13;;;6.50;99.90;;;;;;21082123;28;20279;-76
2022/11/13 06:16:53;;;;;;;17.60;7.10;;;6.60;99.90;;;;;;21081123;28;20232;-75
2022/11/13 06:26:54;;;;;;;15.90;6.20;;;6.50;99.90;;;;;;21080732;28;20212;-76
2022/11/13 06:36:56;;;;;;;47.53;6.60;;;6.50;99.90;;;;;;21079703;28;20259;-76
2022/11/13 06:46:58;;;;;;;34.80;6.63;;;6.30;99.90;;;;;;21079179;28;20237;-75
2022/11/13 06:56:59;;;;;;;10.73;6.20;;;6.30;99.90;;;;;;21079041;28;20227;-73
2022/11/13 07:07:02;;;;;;;106.03;7.43;;;6.30;99.90;;;;;;21086065;28;20231;-74
2022/11/13 07:17:04;;;;;;;94.27;7.20;;;6.20;99.90;;;;;;21095087;28;20287;-76
2022/11/13 07:27:11;;;;;;;55.40;6.20;;;6.20;99.90;;;;;;21090755;28;20290;-77
2022/11/13 07:37:12;;;;;;;26.63;6.70;;;6.10;99.90;;;;;;21013450;28;20234;-77
2022/11/13 07:47:14;;;;;;;69.87;6.83;;;6.20;99.90;;;;;;21006882;28;20237;-73
2022/11/13 07:57:16;;;;;;;11.73;6.17;;;6.10;99.90;;;;;;21058793;28;20281;-76
2022/11/13 08:07:17;;;;;;;8.20;5.67;;;6.30;99.90;;;;;;21037398;28;20202;-77
2022/11/13 08:17:19;;;;;;;37.93;6.30;;;6.40;99.90;;;;;;21074714;28;20327;-72
2022/11/13 08:27:22;;;;;;;26.93;6.73;;;6.40;99.90;;;;;;21088123;28;20211;-73
2022/11/13 08:37:23;;;;;;;10.80;6.53;;;6.60;99.90;;;;;;21084990;28;20667;-73
2022/11/13 08:47:27;;;;;;;40.43;11.73;;;6.50;99.90;;;;;;21081029;28;20288;-74
2022/11/13 08:57:30;;;;;;;37.07;7.07;;;6.30;99.90;;;;;;21087590;28;20242;-76
2022/11/13 09:07:31;;;;;;;9.80;6.00;;;6.50;99.90;;;;;;21085983;28;20217;-74
2022/11/13 09:17:33;;;;;;;10.60;6.97;;;6.70;99.90;;;;;;21083039;28;20241;-74
2022/11/13 09:27:35;;;;;;;10.73;7.30;;;6.70;99.90;;;;;;21092061;28;20206;-75
2022/11/13 09:38:55;;;;;;;9.30;6.70;;;6.80;99.90;;;;;;21162557;27;20980;-73
2022/11/13 09:49:02;;;;;;;11.50;7.70;;;6.60;99.90;;;;;;21152395;28;20209;-75
2022/11/13 10:06:41;;;;;;;13.90;7.50;;;6.60;99.90;;;;;;20984557;28;20572;-65
2022/11/13 10:16:45;;;;;;;10.93;7.90;;;6.80;99.90;;;;;;20983590;28;20271;-64
2022/11/13 10:26:47;;;;;;;11.87;8.33;;;7.10;99.90;;;;;;20927770;28;20198;-78
2022/11/13 10:37:35;;;;;;;10.20;7.77;;;7.20;99.90;;;;;;20904022;28;20228;-67
2022/11/13 10:47:45;;;;;;;11.77;8.23;;;7.40;99.90;;;;;;20881691;28;20215;-73
2022/11/13 10:58:16;;;;;;;9.40;7.10;;;8.10;99.90;;;;;;20897851;28;20325;-76
2022/11/13 11:08:27;;;;;;;8.30;5.90;;;8.40;99.90;;;;;;20892316;28;20238;-81
2022/11/13 11:18:39;;;;;;;9.23;6.37;;;8.60;99.90;;;;;;20841640;28;20778;-78
2022/11/13 11:28:50;;;;;;;8.73;6.80;;;8.90;99.90;;;;;;20842425;28;20232;-68
2022/11/13 11:39:18;;;;;;;9.60;6.27;;;9.30;99.90;;;;;;20839720;28;20705;-74
2022/11/13 11:49:24;;;;;;;9.30;6.33;;;10.10;99.60;;;;;;20920176;28;20214;-68
2022/11/13 11:59:50;;;;;;;8.70;6.80;;;10.40;99.20;;;;;;20920029;28;20297;-68
2022/11/13 12:10:03;;;;;;;10.03;7.00;;;10.50;99.50;;;;;;20919717;28;20216;-75
2022/11/13 12:20:32;;;;;;;8.97;6.87;;;11.00;98.30;;;;;;20918205;28;20276;-76
2022/11/13 12:31:11;;;;;;;10.83;7.70;;;11.20;98.30;;;;;;20917725;28;20207;-75
2022/11/13 12:41:25;;;;;;;12.17;7.27;;;11.30;98.60;;;;;;20916005;28;20281;-75
2022/11/13 12:51:38;;;;;;;9.53;7.10;;;11.70;98.40;;;;;;20915714;28;20236;-72
2022/11/13 13:02:07;;;;;;;8.43;6.60;;;11.90;98.20;;;;;;20915369;28;20379;-74
2022/11/13 13:12:12;;;;;;;9.87;6.30;;;12.00;97.70;;;;;;20915407;28;20267;-73
2022/11/13 13:22:32;;;;;;;8.53;6.70;;;12.10;96.90;;;;;;20854818;28;20645;-75
2022/11/13 13:32:47;;;;;;;7.23;5.87;;;12.30;96.40;;;;;;20840948;28;20209;-71
2022/11/13 13:42:58;;;;;;;11.43;6.93;;;12.30;96.60;;;;;;20830803;28;20694;-70
2022/11/13 13:53:01;;;;;;;8.83;6.27;;;12.30;96.50;;;;;;20848846;28;20263;-67
2022/11/13 14:03:14;;;;;;;8.70;6.87;;;12.40;96.30;;;;;;20876366;28;20247;-72
2022/11/13 14:13:27;;;;;;;11.27;7.80;;;12.60;96.20;;;;;;20851420;28;20266;-72
2022/11/13 14:23:49;;;;;;;12.03;8.60;;;12.60;96.50;;;;;;20826242;28;20747;-71
2022/11/13 14:33:51;;;;;;;11.80;9.13;;;12.70;95.90;;;;;;20827657;28;20274;-70
2022/11/13 14:43:54;;;;;;;14.60;10.00;;;;;;;;;;20829924;28;20239;-76
2022/11/13 14:53:58;;;;;;;11.37;8.63;;;11.70;96.00;;;;;;20844055;28;20213;-78
2022/11/13 15:04:00;;;;;;;9.83;6.50;;;11.40;96.30;;;;;;20913040;28;20242;-72
2022/11/13 15:14:02;;;;;;;11.73;8.80;;;11.10;96.70;;;;;;20922750;28;20208;-73
2022/11/13 15:24:05;;;;;;;15.10;10.37;;;11.00;96.90;;;;;;20923801;28;20241;-73
2022/11/13 15:34:10;;;;;;;14.03;9.60;;;10.60;97.20;;;;;;20921096;28;20213;-72
2022/11/13 15:44:14;;;;;;;15.77;9.87;;;10.30;97.70;;;;;;20920425;28;20238;-72
2022/11/13 15:54:30;;;;;;;16.97;10.87;;;10.20;97.90;;;;;;20921364;28;20205;-72
2022/11/13 16:04:31;;;;;;;14.60;9.80;;;9.80;98.80;;;;;;20920009;28;20287;-72
2022/11/13 16:14:53;;;;;;;17.17;10.83;;;9.60;98.90;;;;;;20919528;28;20212;-72
2022/11/13 16:24:55;;;;;;;13.33;9.10;;;9.70;99.30;;;;;;20918807;28;20237;-72
2022/11/13 16:34:56;;;;;;;19.43;10.50;;;9.60;99.70;;;;;;20917746;28;20209;-72
2022/11/13 16:44:58;;;;;;;19.20;10.57;;;9.50;99.90;;;;;;20916865;28;20237;-72
2022/11/13 16:55:00;;;;;;;19.53;12.17;;;9.20;99.90;;;;;;20917715;28;20205;-71
2022/11/13 17:05:12;;;;;;;17.47;10.50;;;9.10;99.90;;;;;;20838219;28;20799;-72
2022/11/13 17:15:13;;;;;;;24.13;16.27;;;9.10;99.90;;;;;;20831240;28;20208;-72
2022/11/13 17:25:16;;;;;;;24.97;15.47;;;8.90;99.90;;;;;;20832426;28;20268;-71
2022/11/13 17:35:18;;;;;;;19.50;13.23;;;8.90;99.90;;;;;;20832084;28;20206;-71
2022/11/13 17:45:19;;;;;;;21.63;12.57;;;8.70;99.90;;;;;;20830974;28;20236;-72
2022/11/13 17:55:21;;;;;;;20.77;13.20;;;8.60;99.90;;;;;;20830759;28;20211;-72
2022/11/13 18:05:23;;;;;;;22.57;14.10;;;8.40;99.90;;;;;;20829562;28;20240;-72
2022/11/13 18:15:24;;;;;;;22.40;13.63;;;8.40;99.90;;;;;;20829516;28;20229;-72
2022/11/13 18:25:26;;;;;;;23.43;15.97;;;8.30;99.90;;;;;;20841652;28;20243;-72
2022/11/13 18:35:28;;;;;;;25.60;15.83;;;8.20;99.90;;;;;;20845065;28;20300;-71
2022/11/13 18:45:29;;;;;;;27.47;16.80;;;8.10;99.90;;;;;;20844060;28;20707;-71
2022/11/13 18:55:31;;;;;;;34.30;19.00;;;7.80;99.90;;;;;;20843605;28;20238;-72
2022/11/13 19:05:33;;;;;;;32.10;19.97;;;7.80;99.90;;;;;;20841300;28;20302;-75
2022/11/13 19:15:36;;;;;;;36.20;22.40;;;7.80;99.90;;;;;;20921530;28;20198;-71
2022/11/13 19:25:38;;;;;;;40.33;24.57;;;7.70;99.90;;;;;;20922796;28;20237;-76
2022/11/13 19:35:40;;;;;;;44.43;26.37;;;7.50;99.90;;;;;;20921858;28;20212;-76
2022/11/13 19:45:42;;;;;;;47.20;25.17;;;7.50;99.90;;;;;;20921946;28;20574;-75
2022/11/13 19:55:54;;;;;;;38.30;22.00;;;7.50;99.90;;;;;;20921451;28;20214;-75
2022/11/13 20:05:59;;;;;;;40.77;24.37;;;7.50;99.90;;;;;;20919045;28;20252;-76
2022/11/13 20:16:02;;;;;;;36.23;19.90;;;7.20;99.90;;;;;;20917213;28;20270;-77
2022/11/13 20:26:07;;;;;;;35.60;20.33;;;7.20;99.90;;;;;;20917053;28;20237;-74
2022/11/13 20:36:09;;;;;;;33.43;21.37;;;7.10;99.90;;;;;;20916228;28;20211;-77
2022/11/13 20:46:12;;;;;;;31.13;20.33;;;7.10;99.90;;;;;;20915587;28;20233;-78
2022/11/13 20:56:14;;;;;;;36.23;21.60;;;7.10;99.90;;;;;;20914875;28;20210;-79
2022/11/13 21:12:12;;;;;;;32.97;20.87;;;7.00;99.90;;;;;;20980818;28;20600;-76
2022/11/13 21:22:13;;;;;;;25.73;16.37;;;6.80;99.90;;;;;;20998853;28;20231;-78
2022/11/13 21:32:15;;;;;;;27.07;16.40;;;6.80;99.90;;;;;;20987405;28;20567;-78
2022/11/13 21:42:17;;;;;;;25.90;15.93;;;6.70;99.90;;;;;;20980623;28;20212;-77
2022/11/13 21:52:18;;;;;;;23.97;15.33;;;6.70;99.90;;;;;;20979302;28;20214;-74
2022/11/13 22:02:20;;;;;;;24.57;14.67;;;6.70;99.90;;;;;;20978187;28;20209;-76
2022/11/13 22:12:22;;;;;;;23.67;14.53;;;6.70;99.90;;;;;;20977965;28;20270;-77
2022/11/13 22:22:24;;;;;;;30.93;16.70;;;6.50;99.90;;;;;;20928062;28;20259;-75
2022/11/13 22:32:26;;;;;;;28.03;16.67;;;6.40;99.90;;;;;;20921987;28;20209;-74
2022/11/13 22:42:28;;;;;;;23.30;15.57;;;6.30;99.90;;;;;;20922970;28;20268;-74
2022/11/13 22:52:29;;;;;;;20.77;13.43;;;6.40;99.90;;;;;;20921903;28;20666;-75
2022/11/13 23:02:31;;;;;;;26.70;16.13;;;6.30;99.90;;;;;;20889514;28;20225;-75
2022/11/13 23:20:52;;;;;;;24.40;15.27;;;6.20;99.90;;;;;;20937087;28;21146;-74
2022/11/13 23:30:54;;;;;;;25.23;15.50;;;6.20;99.90;;;;;;20897104;28;20275;-73
2022/11/13 23:40:58;;;;;;;26.40;15.77;;;6.10;99.90;;;;;;20900704;28;20206;-75
2022/11/13 23:51:01;;;;;;;31.80;15.20;;;6.10;99.90;;;;;;20899528;28;20569;-75
